You-Yu, Shanxi

2:07 AM CST on February 14, 2016 (GMT +0800)
Baita | | Change Station
CLOSE
Current Station
Airport
Location: Hohhot,
Elevation: 3553 ft
Nearby Weather Stations

Elev 3553 ft 40.85 °N, 111.82 °E | Updated 7 minutes ago

Clear
Clear
3 °F
Feels Like -16 °F
N
16
Wind Variable Wind from North

Today
High -- | Low -- °F
--% Chance of Precip.
Yesterday
High -- | Low -- °F
Precip. -- in
Pressure 30.42 in
Visibility -9999.0 miles
Clouds
Windchill -16 °F
Dew Point -11 °F
Humidity 51%
Rainfall 0.00 in
Snow Depth Not available.
7:26 AM 6:03 PM
Waxing Crescent, 32% visible
METAR ZBHH 131800Z 35007MPS CAVOK M16/M24 Q1030 NOSIG
Pressure 30.42 in
Visibility -9999.0 miles
Clouds
Windchill -16 °F
Dew Point -11 °F
Humidity 51%
Rainfall 0.00 in
Snow Depth Not available.
7:26 AM 6:03 PM
Waxing Crescent, 32% visible
METAR ZBHH 131800Z 35007MPS CAVOK M16/M24 Q1030 NOSIG

10-Day Weather Forecast

No radar image for this location.
×

Almanac

Astronomy

Feb. 14, 2016 Rise Set
Actual Time
Civil Twilight
Nautical Twilight
Astronomical Twilight
Moon
Length of Visible Light
Length of Day
Tomorrow will be .
, % of the Moon is Illuminated

Today's Extremes

Country Highs Country Lows

Community

WunderPhotos

Upload Photos

1,892,631 photos uploaded!

WunderBlog® & News

Nearby

Air Quality

  Air Quality AQ Index Pollutant
Not available.

Snow Depth

Station Depth Elevation

Earthquake Activity

City Distance Mag. Time & Date
Minimum magnitude displayed is 2.5.

Coastal Water Temperatures

Place Temperature

Stations

Nearby Weather Stations

Station Location Temp. Windchill Dew Point Humidity Wind Precip. Elev Updated Type